Time;durP1;ratioP1;P1;durP2;ratioP2;P2;SDS_P1;SDS_P2;PMS_P1;PMS_P2;Temp;Humidity;BMP_temperature;BMP_pressure;BME280_temperature;BME280_humidity;BME280_pressure;Samples;Min_cycle;Max_cycle;Signal;HPM_P1;HPM_P2
2023/12/01 00:00:47;;;;;;;36.42;26.90;;;;;;;-0.51;100.00;97098.91;14773886;19;10000347;-52
2023/12/01 00:06:14;;;;;;;39.67;27.10;;;;;;;-0.50;100.00;97113.84;15287850;19;20066;-53
2023/12/01 00:11:39;;;;;;;41.10;28.33;;;;;;;-0.50;100.00;97113.84;15283890;19;20023;-52
2023/12/01 00:17:03;;;;;;;41.45;29.15;;;;;;;-0.49;100.00;97118.16;15282255;19;20011;-52
2023/12/01 00:22:30;;;;;;;40.50;28.20;;;;;;;-0.49;100.00;97123.44;15282265;19;20020;-55
2023/12/01 00:27:56;;;;;;;44.30;29.35;;;;;;;-0.50;100.00;97125.28;15287882;19;20014;-55
2023/12/01 00:33:21;;;;;;;45.92;30.02;;;;;;;-0.48;100.00;97122.50;15281787;19;20011;-53
2023/12/01 00:38:49;;;;;;;42.13;28.90;;;;;;;-0.49;100.00;97107.56;15285430;19;20086;-51
2023/12/01 00:44:15;;;;;;;40.75;27.85;;;;;;;-0.50;100.00;97108.53;15281593;19;20084;-52
2023/12/01 00:49:39;;;;;;;41.60;28.38;;;;;;;-0.50;100.00;97113.84;15278956;19;20089;-51
2023/12/01 00:55:07;;;;;;;45.47;28.67;;;;;;;-0.54;100.00;97107.13;15280197;19;20090;-50
2023/12/01 01:00:31;;;;;;;45.38;30.52;;;;;;;-0.55;100.00;97126.59;15280447;19;20023;-50
2023/12/01 01:05:56;;;;;;;45.60;28.85;;;;;;;-0.59;100.00;97128.66;15278712;19;20025;-53
2023/12/01 01:11:23;;;;;;;44.90;29.65;;;;;;;-0.59;100.00;97141.03;15296080;19;20011;-50
2023/12/01 01:16:48;;;;;;;47.28;30.50;;;;;;;-0.60;100.00;97120.84;15292887;19;20019;-51
2023/12/01 01:22:12;;;;;;;44.25;27.77;;;;;;;-0.60;100.00;97142.00;15288160;19;20035;-52
2023/12/01 01:27:40;;;;;;;35.10;25.73;;;;;;;-0.60;100.00;97142.84;15295433;19;20018;-52
2023/12/01 01:33:04;;;;;;;35.53;25.13;;;;;;;-0.60;100.00;97139.34;15293242;19;20024;-52
2023/12/01 01:38:22;;;;;;;34.53;23.75;;;;;;;-0.62;100.00;97150.06;15296108;19;20470;-52
2023/12/01 01:43:52;;;;;;;32.28;22.20;;;;;;;-0.65;100.00;97132.59;15292803;19;20090;-51
2023/12/01 01:49:17;;;;;;;36.40;23.70;;;;;;;-0.65;100.00;97122.03;15295291;19;20035;-52
2023/12/01 01:54:42;;;;;;;44.20;25.33;;;;;;;-0.63;100.00;97120.13;15287171;19;20375;-54
2023/12/01 02:00:11;;;;;;;58.45;25.90;;;;;;;-0.64;100.00;97129.00;15291657;19;20035;-55
2023/12/01 02:05:36;;;;;;;53.95;23.35;;;;;;;-0.64;100.00;97117.59;15292945;19;20035;-55
2023/12/01 02:11:00;;;;;;;46.72;24.70;;;;;;;-0.63;100.00;97135.16;15288132;19;20018;-56
2023/12/01 02:16:28;;;;;;;30.90;18.52;;;;;;;-0.66;100.00;97130.97;15291374;19;20014;-53
2023/12/01 02:21:59;;;;;;;29.48;17.95;;;;;;;-0.70;100.00;97144.53;15287425;19;20033;-55
2023/12/01 02:27:24;;;;;;;37.30;21.25;;;;;;;-0.73;100.00;97153.56;15288628;19;20050;-54
2023/12/01 02:32:49;;;;;;;36.35;20.42;;;;;;;-0.73;100.00;97168.59;15291451;19;20670;-51
2023/12/01 02:38:17;;;;;;;39.47;20.73;;;;;;;-0.74;100.00;97165.09;15292825;19;20018;-51
2023/12/01 02:43:42;;;;;;;35.53;19.65;;;;;;;-0.76;100.00;97161.72;15288622;19;20480;-50
2023/12/01 02:49:08;;;;;;;32.40;19.55;;;;;;;-0.76;100.00;97167.00;15290016;19;20017;-50
2023/12/01 02:54:36;;;;;;;38.63;21.52;;;;;;;-0.79;100.00;97160.16;15285932;19;20018;-51
2023/12/01 03:00:01;;;;;;;43.28;21.35;;;;;;;-0.84;100.00;97164.13;15285990;19;20014;-51
2023/12/01 03:05:32;;;;;;;122.82;25.70;;;;;;;-0.90;100.00;97148.78;15290651;19;20349;-53
2023/12/01 03:10:59;;;;;;;132.13;28.55;;;;;;;-0.97;100.00;97145.75;15286949;19;20480;-50
2023/12/01 03:16:24;;;;;;;129.25;29.02;;;;;;;-1.03;100.00;97154.16;15286190;19;20021;-50
2023/12/01 03:21:48;;;;;;;122.70;29.67;;;;;;;-1.04;100.00;97155.97;15286662;19;20010;-53
2023/12/01 03:27:16;;;;;;;210.50;30.15;;;;;;;-1.03;100.00;97143.59;15289823;19;20422;-52
2023/12/01 03:32:40;;;;;;;126.30;28.58;;;;;;;-1.07;100.00;97158.84;15279078;19;20018;-53
2023/12/01 03:38:06;;;;;;;96.00;27.13;;;;;;;-1.06;100.00;97165.81;15289698;19;20017;-55
2023/12/01 03:43:33;;;;;;;240.85;31.15;;;;;;;-1.08;100.00;97173.03;15282350;19;20375;-51
2023/12/01 03:48:58;;;;;;;236.70;29.00;;;;;;;-1.11;100.00;97184.69;15285171;19;20028;-55
2023/12/01 03:54:23;;;;;;;181.23;28.95;;;;;;;-1.14;100.00;97190.19;15284817;19;20011;-53
2023/12/01 03:59:51;;;;;;;272.90;30.40;;;;;;;-1.15;100.00;97208.81;15285325;19;20486;-53
2023/12/01 04:05:30;;;;;;;537.00;35.15;;;;;;;-1.20;100.00;97201.25;15279928;19;20021;-53
2023/12/01 04:10:55;;;;;;;495.25;35.70;;;;;;;-1.27;100.00;97203.53;15278972;19;20022;-53
2023/12/01 04:16:24;;;;;;;335.08;33.78;;;;;;;-1.29;100.00;97210.72;15282724;19;20059;-51
2023/12/01 04:21:49;;;;;;;172.32;33.83;;;;;;;-1.27;100.00;97214.09;15282027;19;20456;-51
2023/12/01 04:27:15;;;;;;;625.00;37.20;;;;;;;-1.26;100.00;97213.13;15286637;19;20035;-57
2023/12/01 04:32:43;;;;;;;353.95;34.33;;;;;;;-1.31;100.00;97209.16;15282653;19;20078;-54
2023/12/01 04:38:09;;;;;;;621.08;40.10;;;;;;;-1.38;100.00;97200.84;15280455;19;20011;-53
2023/12/01 04:43:34;;;;;;;624.95;40.97;;;;;;;-1.53;100.00;97202.00;15289881;19;20093;-54
2023/12/01 04:49:02;;;;;;;712.72;43.83;;;;;;;-1.66;100.00;97205.56;15300693;19;20092;-53
2023/12/01 04:54:27;;;;;;;587.13;42.30;;;;;;;-1.76;100.00;97209.84;15296219;19;20863;-51
2023/12/01 04:59:56;;;;;;;680.33;44.30;;;;;;;-1.82;100.00;97207.69;15300346;19;20006;-51
2023/12/01 05:05:33;;;;;;;602.33;43.35;;;;;;;-1.88;100.00;97207.16;15293520;19;20003;-52
2023/12/01 05:10:57;;;;;;;609.63;48.30;;;;;;;-1.94;100.00;97210.25;15290965;19;20090;-52
2023/12/01 05:16:23;;;;;;;664.78;50.85;;;;;;;-1.99;100.00;97214.19;15293994;19;20021;-50
2023/12/01 05:21:51;;;;;;;529.20;41.85;;;;;;;-2.08;100.00;97228.91;15294143;19;20086;-51
2023/12/01 05:27:16;;;;;;;471.35;44.05;;;;;;;-2.14;100.00;97227.56;15292407;19;20439;-53
2023/12/01 05:32:41;;;;;;;650.50;44.30;;;;;;;-2.19;100.00;97237.59;15290159;19;20260;-51
2023/12/01 05:38:09;;;;;;;471.63;44.03;;;;;;;-2.21;100.00;97227.16;15291041;19;20015;-51
2023/12/01 05:43:34;;;;;;;509.25;44.53;;;;;;;-2.25;100.00;97224.84;15285853;19;20018;-50
2023/12/01 05:49:02;;;;;;;435.15;43.35;;;;;;;-2.25;100.00;97235.41;15295402;19;20494;-52
2023/12/01 05:54:30;;;;;;;222.88;37.63;;;;;;;-2.28;100.00;97228.53;15290870;19;20037;-54
2023/12/01 05:59:55;;;;;;;274.05;38.05;;;;;;;-2.28;100.00;97235.63;15293155;19;20098;-53
2023/12/01 06:05:29;;;;;;;211.95;38.17;;;;;;;-2.29;100.00;97247.94;15291161;19;20018;-54
2023/12/01 06:10:56;;;;;;;;;;;;;;;-2.36;100.00;97244.94;15293523;19;20015;-52
2023/12/01 06:16:20;;;;;;;131.25;36.28;;;;;;;-2.31;100.00;97231.41;15293452;19;19921;-50
2023/12/01 06:21:44;;;;;;;132.55;38.25;;;;;;;-2.30;100.00;97234.88;15285752;19;20027;-52
2023/12/01 06:27:11;;;;;;;131.82;39.92;;;;;;;-2.32;100.00;97250.84;15289883;19;20475;-54
2023/12/01 06:32:36;;;;;;;110.97;36.15;;;;;;;-2.31;100.00;97249.88;15285566;19;20090;-53
2023/12/01 06:38:00;;;;;;;110.97;38.67;;;;;;;-2.32;100.00;97272.75;15287731;19;20010;-53
2023/12/01 06:43:30;;;;;;;107.38;35.83;;;;;;;-2.31;100.00;97278.91;15288767;19;20018;-56
2023/12/01 06:48:55;;;;;;;92.10;32.42;;;;;;;-2.31;100.00;97284.19;15293441;19;20022;-54
2023/12/01 06:54:20;;;;;;;84.32;30.67;;;;;;;-2.34;100.00;97294.94;15284745;19;20040;-51
2023/12/01 06:59:47;;;;;;;83.10;29.60;;;;;;;-2.37;100.00;97301.28;15291164;19;20014;-51
2023/12/01 07:05:19;;;;;;;79.10;29.73;;;;;;;-2.40;100.00;97295.34;15286419;19;20023;-50
2023/12/01 07:10:44;;;;;;;75.40;29.88;;;;;;;-2.38;100.00;97304.00;15289489;19;20093;-53
2023/12/01 07:16:12;;;;;;;54.88;26.02;;;;;;;-2.41;100.00;97323.53;15287742;19;20093;-51
2023/12/01 07:21:37;;;;;;;60.85;27.52;;;;;;;-2.43;100.00;97333.34;15289942;19;20018;-53
2023/12/01 07:27:02;;;;;;;51.05;25.17;;;;;;;-2.42;100.00;97339.47;15292174;19;20750;-49
2023/12/01 07:32:30;;;;;;;58.47;27.23;;;;;;;-2.35;100.00;97343.38;15290502;19;20038;-48
2023/12/01 07:37:52;;;;;;;51.92;25.38;;;;;;;-2.33;100.00;97354.66;15289086;19;20018;-49
2023/12/01 07:43:19;;;;;;;44.17;25.25;;;;;;;-2.35;100.00;97356.56;15288535;19;20798;-47
2023/12/01 07:48:47;;;;;;;45.17;23.33;;;;;;;-2.37;100.00;97363.72;15284802;19;20018;-47
2023/12/01 07:54:26;;;;;;;37.88;21.42;;;;;;;-2.40;100.00;97356.88;15287293;19;20328;-50
2023/12/01 07:59:50;;;;;;;35.78;21.55;;;;;;;-2.37;100.00;97371.63;15289696;19;20081;-48
2023/12/01 08:05:25;;;;;;;32.53;19.92;;;;;;;-2.40;100.00;97375.34;15284744;19;20914;-49
2023/12/01 08:10:51;;;;;;;33.05;20.02;;;;;;;-2.36;100.00;97368.91;15284937;19;20017;-48
2023/12/01 08:16:18;;;;;;;32.67;19.27;;;;;;;-2.32;100.00;97380.09;15291795;19;20084;-48
2023/12/01 08:21:45;;;;;;;27.92;18.17;;;;;;;-2.33;100.00;97381.88;15296494;19;20015;-49
2023/12/01 08:27:10;;;;;;;27.13;17.83;;;;;;;-2.31;100.00;97389.69;15306268;19;20524;-48
2023/12/01 08:32:36;;;;;;;27.98;18.60;;;;;;;-2.30;100.00;97391.38;15300445;19;20021;-51
2023/12/01 08:38:04;;;;;;;26.48;17.58;;;;;;;-2.28;100.00;97384.19;15299210;19;20018;-50
2023/12/01 08:43:28;;;;;;;29.58;18.73;;;;;;;-2.22;100.00;97389.03;15299847;19;20484;-52
2023/12/01 08:48:54;;;;;;;22.80;16.80;;;;;;;-2.17;100.00;97400.09;15302882;19;20015;-50
2023/12/01 08:54:21;;;;;;;23.65;16.45;;;;;;;-2.10;100.00;97412.88;15292613;19;20002;-50
2023/12/01 08:59:47;;;;;;;23.35;16.80;;;;;;;-2.12;100.00;97404.22;15302514;19;20097;-49
2023/12/01 09:05:18;;;;;;;21.17;15.73;;;;;;;-2.08;100.00;97396.00;15297478;19;20081;-52
2023/12/01 09:10:45;;;;;;;20.17;15.65;;;;;;;-2.09;100.00;97404.03;15300070;19;20545;-49
2023/12/01 09:16:10;;;;;;;20.42;15.82;;;;;;;-2.08;100.00;97411.81;15299205;19;20432;-52
2023/12/01 09:21:34;;;;;;;20.83;15.45;;;;;;;-2.13;100.00;97415.72;15297481;19;20538;-53
2023/12/01 09:27:02;;;;;;;21.45;14.88;;;;;;;-2.13;100.00;97427.16;15295552;19;20097;-51
2023/12/01 09:32:26;;;;;;;24.65;16.45;;;;;;;-2.20;100.00;97426.72;15297285;19;20014;-49
2023/12/01 09:37:51;;;;;;;21.80;15.73;;;;;;;-2.21;100.00;97414.47;15296282;19;20372;-50
2023/12/01 09:43:21;;;;;;;21.70;15.10;;;;;;;-2.20;100.00;97429.38;15295506;19;20078;-48
2023/12/01 09:48:49;;;;;;;20.83;14.63;;;;;;;-2.25;100.00;97423.56;15298946;19;20014;-51
2023/12/01 09:54:13;;;;;;;20.88;14.88;;;;;;;-2.35;100.00;97425.97;15292080;19;20023;-48
2023/12/01 09:59:43;;;;;;;21.95;14.85;;;;;;;-2.39;100.00;97402.53;15286194;19;20042;-52
2023/12/01 10:05:15;;;;;;;21.20;13.50;;;;;;;-2.39;100.00;97405.19;15291245;19;20015;-50
2023/12/01 10:10:41;;;;;;;21.05;14.75;;;;;;;-2.42;100.00;97397.50;14777129;19;10000636;-51
2023/12/01 10:16:09;;;;;;;20.85;14.80;;;;;;;-2.36;100.00;97413.75;15293514;19;20021;-49
2023/12/01 10:21:44;;;;;;;21.15;13.95;;;;;;;-2.42;100.00;97403.59;15292261;19;20471;-51
2023/12/01 10:27:09;;;;;;;21.45;13.93;;;;;;;-2.48;100.00;97393.50;15292534;19;20602;-50
2023/12/01 10:32:38;;;;;;;20.85;13.77;;;;;;;-2.50;100.00;97405.94;15284759;19;20486;-52
2023/12/01 10:38:03;;;;;;;21.45;14.18;;;;;;;-2.56;100.00;97378.19;15286714;19;20110;-51
2023/12/01 10:43:29;;;;;;;20.70;13.35;;;;;;;-2.54;100.00;97393.91;15287888;19;20022;-49
2023/12/01 10:48:59;;;;;;;20.70;13.27;;;;;;;-2.53;100.00;97385.88;15290288;19;20007;-52
2023/12/01 10:54:27;;;;;;;18.80;13.13;;;;;;;-2.55;100.00;97377.25;15285700;19;20017;-48
2023/12/01 10:59:57;;;;;;;20.17;13.30;;;;;;;-2.50;100.00;97375.13;15286766;19;20018;-52
2023/12/01 11:05:32;;;;;;;21.95;14.10;;;;;;;-2.47;100.00;97368.81;15282572;19;20024;-50
2023/12/01 11:11:07;;;;;;;20.17;13.27;;;;;;;-2.37;100.00;97363.72;15289874;19;20018;-50
2023/12/01 11:16:33;;;;;;;17.38;12.55;;;;;;;-2.28;100.00;97371.00;15291334;19;20021;-53
2023/12/01 11:22:01;;;;;;;14.90;11.68;;;;;;;-2.26;100.00;97371.72;15289926;19;20018;-49
2023/12/01 11:27:28;;;;;;;15.40;11.25;;;;;;;-2.30;100.00;97375.56;15291005;19;20012;-48
2023/12/01 11:32:54;;;;;;;15.85;11.73;;;;;;;-2.32;100.00;97377.44;15287769;19;20361;-49
2023/12/01 11:38:22;;;;;;;16.80;12.27;;;;;;;-2.43;100.00;97370.25;15284351;19;20035;-51
2023/12/01 11:44:07;;;;;;;18.92;13.02;;;;;;;-2.55;100.00;97353.50;15275775;19;20388;-54
2023/12/01 11:49:33;;;;;;;18.95;13.93;;;;;;;-2.61;100.00;97353.91;15287656;19;20026;-51
2023/12/01 11:55:00;;;;;;;20.88;14.18;;;;;;;-2.68;100.00;97361.41;15285046;19;20484;-53
2023/12/01 12:00:26;;;;;;;19.92;12.95;;;;;;;-2.68;100.00;97360.56;15280054;19;20628;-50
2023/12/01 12:05:51;;;;;;;18.58;12.93;;;;;;;-2.66;100.00;97354.22;15283815;19;20430;-50
2023/12/01 12:11:19;;;;;;;17.90;13.27;;;;;;;-2.64;100.00;97351.47;15282466;19;20010;-56
2023/12/01 12:16:44;;;;;;;21.25;14.63;;;;;;;-2.57;100.00;97373.88;15286755;19;20476;-50
2023/12/01 12:22:10;;;;;;;18.30;13.27;;;;;;;-2.52;100.00;97379.66;15284646;19;20106;-50
2023/12/01 12:27:43;;;;;;;18.42;14.63;;;;;;;-2.45;100.00;97355.50;15281781;19;20017;-55
2023/12/01 12:33:09;;;;;;;18.23;13.57;;;;;;;-2.35;100.00;97338.09;15283685;19;20081;-51
2023/12/01 12:38:35;;;;;;;18.77;14.57;;;;;;;-2.32;100.00;97336.06;15278513;19;20009;-59
2023/12/01 12:44:12;;;;;;;18.77;14.65;;;;;;;-2.41;100.00;97355.19;15280366;19;20022;-50
2023/12/01 12:49:37;;;;;;;20.52;14.88;;;;;;;-2.55;100.00;97345.59;15284887;19;20018;-49
2023/12/01 12:55:02;;;;;;;18.15;14.57;;;;;;;-2.66;100.00;97354.22;15280067;19;20349;-53
2023/12/01 13:00:31;;;;;;;19.67;14.57;;;;;;;-2.69;100.00;97364.97;15279499;19;20022;-51
2023/12/01 13:05:55;;;;;;;17.48;13.88;;;;;;;-2.68;100.00;97368.47;15292227;19;20018;-49
2023/12/01 13:11:14;;;;;;;19.45;14.77;;;;;;;-2.73;100.00;97352.97;15291036;19;20011;-49
2023/12/01 13:16:42;;;;;;;18.27;14.38;;;;;;;-2.72;100.00;97344.13;15298254;19;20028;-52
2023/12/01 13:22:13;;;;;;;17.90;14.05;;;;;;;-2.72;100.00;97349.41;15295425;19;20014;-49
2023/12/01 13:27:37;;;;;;;20.73;15.73;;;;;;;-2.80;100.00;97381.53;15297643;19;20423;-49
2023/12/01 13:33:05;;;;;;;19.45;15.27;;;;;;;-2.76;100.00;97398.00;15293593;19;20875;-52
2023/12/01 13:38:30;;;;;;;18.35;13.90;;;;;;;-2.71;100.00;97390.63;15294461;19;20877;-53
2023/12/01 13:43:55;;;;;;;20.02;13.48;;;;;;;-2.79;100.00;97391.13;15287949;19;20022;-55
2023/12/01 13:49:22;;;;;;;16.08;12.95;;;;;;;-2.84;100.00;97405.56;15294951;19;20082;-54
2023/12/01 13:54:47;;;;;;;17.83;12.90;;;;;;;-2.84;100.00;97395.88;15291262;19;20034;-53
2023/12/01 14:00:15;;;;;;;16.23;12.43;;;;;;;-2.84;100.00;97392.41;15289616;19;20392;-49
2023/12/01 14:05:43;;;;;;;13.63;11.23;;;;;;;-2.88;100.00;97397.00;15286967;19;20351;-53
2023/12/01 14:11:08;;;;;;;15.43;10.98;;;;;;;-2.93;100.00;97385.94;15287944;19;20007;-55
2023/12/01 14:16:32;;;;;;;13.48;10.32;;;;;;;-2.98;100.00;97401.19;15287834;19;20030;-53
2023/12/01 14:21:59;;;;;;;13.88;10.85;;;;;;;-3.07;100.00;97397.41;15292624;19;20014;-57
2023/12/01 14:27:24;;;;;;;14.55;10.52;;;;;;;-3.12;100.00;97392.41;15293511;19;20035;-52
2023/12/01 14:32:49;;;;;;;14.18;11.70;;;;;;;-3.12;100.00;97383.69;15291867;19;20046;-49
2023/12/01 14:38:16;;;;;;;14.95;11.60;;;;;;;-3.12;100.00;97370.50;15292622;19;20021;-52
2023/12/01 14:43:47;;;;;;;17.27;13.55;;;;;;;-3.13;100.00;97364.41;15286913;19;20015;-49
2023/12/01 14:49:12;;;;;;;19.52;16.05;;;;;;;-3.16;100.00;97385.69;15283897;19;20074;-49
2023/12/01 14:54:40;;;;;;;20.23;16.48;;;;;;;-3.19;100.00;97401.69;15286181;19;20010;-50
2023/12/01 15:00:10;;;;;;;21.77;16.63;;;;;;;-3.22;100.00;97401.03;15286530;19;20029;-52
2023/12/01 15:05:34;;;;;;;21.45;16.92;;;;;;;-3.25;100.00;97415.25;15284532;19;20035;-56
2023/12/01 15:11:01;;;;;;;23.23;16.92;;;;;;;-3.27;100.00;97427.69;15287154;19;20019;-52
2023/12/01 15:16:27;;;;;;;24.98;18.45;;;;;;;-3.27;100.00;97438.22;15288822;19;20587;-52
2023/12/01 15:21:52;;;;;;;20.65;16.02;;;;;;;-3.27;100.00;97446.94;15282487;19;20021;-57
2023/12/01 15:27:21;;;;;;;19.77;16.40;;;;;;;-3.26;100.00;97445.19;15284792;19;20014;-49
2023/12/01 15:32:46;;;;;;;21.83;16.17;;;;;;;-3.30;100.00;97435.78;15283277;19;20092;-52
2023/12/01 15:38:10;;;;;;;21.90;16.25;;;;;;;-3.31;100.00;97436.72;15287913;19;20022;-53
2023/12/01 15:43:45;;;;;;;21.30;16.50;;;;;;;-3.31;100.00;97453.38;15285190;19;20302;-49
2023/12/01 15:49:11;;;;;;;20.30;16.08;;;;;;;-3.31;100.00;97449.88;15289169;19;20078;-55
2023/12/01 15:54:35;;;;;;;20.25;16.15;;;;;;;-3.33;100.00;97450.00;15280071;19;20086;-52
2023/12/01 16:00:05;;;;;;;19.83;14.95;;;;;;;-3.38;100.00;97456.50;15286214;19;20014;-54
2023/12/01 16:05:30;;;;;;;18.55;14.98;;;;;;;-3.42;100.00;97455.84;15284796;19;20020;-52
2023/12/01 16:10:55;;;;;;;17.20;13.52;;;;;;;-3.44;100.00;97458.56;15287301;19;20069;-49
2023/12/01 16:16:22;;;;;;;20.00;14.68;;;;;;;-3.47;100.00;97469.28;15291727;19;20071;-51
2023/12/01 16:21:47;;;;;;;17.88;15.13;;;;;;;-3.46;100.00;97459.63;15282180;19;20027;-49
2023/12/01 16:27:12;;;;;;;18.63;14.70;;;;;;;-3.49;100.00;97476.47;15279688;19;20011;-50
2023/12/01 16:32:40;;;;;;;18.73;15.20;;;;;;;-3.52;100.00;97486.31;15282725;19;20038;-53
2023/12/01 16:38:05;;;;;;;17.83;15.02;;;;;;;-3.51;100.00;97491.50;15287331;19;20018;-52
2023/12/01 16:43:31;;;;;;;18.08;14.55;;;;;;;-3.52;100.00;97487.19;15297082;19;20073;-55
2023/12/01 16:48:58;;;;;;;17.90;14.48;;;;;;;-3.54;100.00;97477.69;15278518;19;20082;-50
2023/12/01 16:54:24;;;;;;;17.67;13.73;;;;;;;-3.58;100.00;97471.75;15295614;19;20032;-49
2023/12/01 16:59:49;;;;;;;18.67;14.93;;;;;;;-3.65;100.00;97465.19;15288349;19;20025;-51
2023/12/01 17:05:16;;;;;;;18.08;14.50;;;;;;;-3.65;100.00;97459.94;15289105;19;20482;-54
2023/12/01 17:10:41;;;;;;;18.23;14.32;;;;;;;-3.68;100.00;97449.59;15296988;19;20017;-51
2023/12/01 17:16:07;;;;;;;20.50;14.65;;;;;;;-3.68;100.00;97460.97;15298434;19;20015;-52
2023/12/01 17:21:35;;;;;;;19.08;14.35;;;;;;;-3.71;100.00;97442.72;15294647;19;20106;-51
2023/12/01 17:27:00;;;;;;;21.75;17.15;;;;;;;-3.70;100.00;97456.75;15292574;19;20010;-52
2023/12/01 17:32:24;;;;;;;19.27;13.07;;;;;;;-3.72;100.00;97464.72;15287754;19;20027;-52
2023/12/01 17:37:51;;;;;;;16.45;12.80;;;;;;;-3.71;100.00;97453.25;15295375;19;20089;-51
2023/12/01 17:43:23;;;;;;;15.75;11.10;;;;;;;-3.75;100.00;97463.13;15282508;19;20029;-50
2023/12/01 17:48:47;;;;;;;16.13;13.00;;;;;;;-3.81;100.00;97474.03;15290991;19;20024;-53
2023/12/01 17:54:16;;;;;;;13.23;10.75;;;;;;;-3.84;100.00;97466.34;15292990;19;20010;-48
2023/12/01 17:59:41;;;;;;;14.98;10.90;;;;;;;-3.88;100.00;97480.63;15295139;19;20771;-51
2023/12/01 18:05:05;;;;;;;13.30;10.88;;;;;;;-3.86;100.00;97468.22;15279107;19;20024;-50
2023/12/01 18:10:32;;;;;;;15.02;11.55;;;;;;;-3.88;100.00;97454.31;15290987;19;20015;-50
2023/12/01 18:15:57;;;;;;;16.75;12.98;;;;;;;-3.92;100.00;97447.53;15289256;19;20011;-48
2023/12/01 18:21:22;;;;;;;15.85;12.75;;;;;;;-3.99;100.00;97444.44;15288628;19;20037;-53
2023/12/01 18:26:49;;;;;;;18.63;12.90;;;;;;;-4.07;100.00;97446.69;15292681;19;20483;-48
2023/12/01 18:32:14;;;;;;;16.95;13.43;;;;;;;-4.07;100.00;97444.06;15288909;19;20069;-52
2023/12/01 18:37:38;;;;;;;15.43;13.35;;;;;;;-4.11;100.00;97443.41;15286434;19;20042;-49
2023/12/01 18:43:06;;;;;;;15.55;12.85;;;;;;;-4.13;100.00;97439.19;15287491;19;20348;-52
2023/12/01 18:48:32;;;;;;;17.40;12.38;;;;;;;-4.16;100.00;97423.59;15290705;19;20015;-49
2023/12/01 18:53:57;;;;;;;17.58;12.98;;;;;;;-4.20;100.00;97422.94;15288090;19;20029;-54
2023/12/01 18:59:24;;;;;;;17.70;13.15;;;;;;;-4.23;100.00;97425.75;15285904;19;20025;-52
2023/12/01 19:04:49;;;;;;;19.08;14.20;;;;;;;-4.24;100.00;97439.84;15281128;19;20094;-49
2023/12/01 19:10:15;;;;;;;17.58;13.68;;;;;;;-4.22;100.00;97441.44;15284059;19;20018;-51
2023/12/01 19:15:42;;;;;;;18.70;14.98;;;;;;;-4.26;100.00;97425.94;15287967;19;20078;-52
2023/12/01 19:21:07;;;;;;;20.13;15.68;;;;;;;-4.29;100.00;97444.56;15286836;19;20035;-52
2023/12/01 19:26:33;;;;;;;23.27;16.73;;;;;;;-4.29;100.00;97448.00;15288866;19;20014;-52
2023/12/01 19:32:01;;;;;;;22.33;16.88;;;;;;;-4.29;100.00;97447.19;15287292;19;20016;-52
2023/12/01 19:37:27;;;;;;;23.27;16.85;;;;;;;-4.31;100.00;97447.25;15289679;19;20041;-49
2023/12/01 19:42:59;;;;;;;22.40;16.40;;;;;;;-4.38;100.00;97449.41;15279573;19;20490;-49
2023/12/01 19:48:27;;;;;;;21.85;16.73;;;;;;;-4.39;100.00;97466.13;15289207;19;20032;-50
2023/12/01 19:53:51;;;;;;;25.10;16.73;;;;;;;-4.39;100.00;97478.44;15286552;19;20078;-54
2023/12/01 19:59:16;;;;;;;24.65;17.23;;;;;;;-4.39;100.00;97481.88;15288993;19;20010;-48
2023/12/01 20:04:43;;;;;;;25.63;17.63;;;;;;;-4.37;100.00;97495.78;15284684;19;20025;-49
2023/12/01 20:10:08;;;;;;;26.13;18.73;;;;;;;-4.37;100.00;97487.91;15284062;19;20030;-48
2023/12/01 20:15:33;;;;;;;25.27;18.48;;;;;;;-4.38;100.00;97480.13;15291907;19;20014;-48
2023/12/01 20:21:00;;;;;;;27.42;18.17;;;;;;;-4.36;100.00;97491.41;15298949;19;20020;-53
2023/12/01 20:26:25;;;;;;;27.20;19.25;;;;;;;-4.34;100.00;97492.13;15301954;19;20010;-52
2023/12/01 20:31:50;;;;;;;27.88;19.30;;;;;;;-4.32;100.00;97498.16;15300535;19;20010;-52
2023/12/01 20:37:17;;;;;;;30.45;19.92;;;;;;;-4.29;100.00;97507.66;15300226;19;20102;-50
2023/12/01 20:42:48;;;;;;;29.25;20.35;;;;;;;-4.30;100.00;97501.53;15295780;19;20415;-49
2023/12/01 20:48:13;;;;;;;32.97;20.67;;;;;;;-4.31;100.00;97496.38;15300493;19;20027;-51
2023/12/01 20:53:40;;;;;;;32.13;21.52;;;;;;;-4.32;100.00;97499.94;15296242;19;20014;-50
2023/12/01 20:59:06;;;;;;;28.23;19.40;;;;;;;-4.34;100.00;97524.53;15298823;19;20730;-48
2023/12/01 21:04:32;;;;;;;29.75;20.20;;;;;;;-4.38;100.00;97514.31;15293936;19;20089;-48
2023/12/01 21:09:59;;;;;;;30.05;20.23;;;;;;;-4.44;100.00;97510.25;15295757;19;20038;-49
2023/12/01 21:15:25;;;;;;;28.98;20.33;;;;;;;-4.43;100.00;97508.44;15287191;19;20033;-48
2023/12/01 21:20:50;;;;;;;28.70;20.45;;;;;;;-4.43;100.00;97490.06;15294167;19;20830;-49
2023/12/01 21:26:18;;;;;;;29.98;20.00;;;;;;;-4.47;100.00;97472.78;15294457;19;20046;-49
2023/12/01 21:31:43;;;;;;;29.67;20.60;;;;;;;-4.49;100.00;97472.84;15296309;19;20018;-57
2023/12/01 21:37:07;;;;;;;34.08;22.10;;;;;;;-4.52;100.00;97501.94;15298274;19;20011;-50
2023/12/01 21:42:41;;;;;;;32.58;22.85;;;;;;;-4.53;100.00;97492.41;15292081;19;20039;-51
2023/12/01 21:48:06;;;;;;;32.35;22.05;;;;;;;-4.57;100.00;97488.25;15292193;19;20014;-50
2023/12/01 21:53:31;;;;;;;34.42;22.10;;;;;;;-4.61;100.00;97492.84;15293958;19;20547;-49
2023/12/01 21:58:58;;;;;;;36.17;23.63;;;;;;;-4.64;100.00;97478.06;15292468;19;20362;-53
2023/12/01 22:04:23;;;;;;;39.13;23.60;;;;;;;-4.66;100.00;97497.50;15292098;19;20090;-51
2023/12/01 22:09:48;;;;;;;35.90;24.17;;;;;;;-4.66;100.00;97518.53;15294894;19;20352;-49
2023/12/01 22:15:17;;;;;;;37.55;23.60;;;;;;;-4.72;100.00;97522.34;15290659;19;20848;-54
2023/12/01 22:20:42;;;;;;;39.88;24.95;;;;;;;-4.75;100.00;97522.53;15289309;19;20407;-50
2023/12/01 22:26:06;;;;;;;43.83;26.52;;;;;;;-4.74;100.00;97518.13;15288682;19;20534;-50
2023/12/01 22:31:35;;;;;;;46.60;26.20;;;;;;;-4.74;100.00;97524.22;15292847;19;20017;-51
2023/12/01 22:36:59;;;;;;;43.30;24.88;;;;;;;-4.76;100.00;97533.97;15288834;19;20024;-51
2023/12/01 22:42:24;;;;;;;43.85;24.98;;;;;;;-4.77;100.00;97527.03;15288669;19;20045;-53
2023/12/01 22:47:51;;;;;;;47.58;26.05;;;;;;;-4.75;100.00;97517.28;15292185;19;20373;-50
2023/12/01 22:53:16;;;;;;;43.83;25.73;;;;;;;-4.77;100.00;97519.16;15282586;19;20382;-50
2023/12/01 22:58:40;;;;;;;43.45;26.23;;;;;;;-4.76;100.00;97506.84;15292627;19;20014;-54
2023/12/01 23:04:07;;;;;;;40.40;23.77;;;;;;;-4.74;100.00;97516.34;15288006;19;20014;-53
2023/12/01 23:09:32;;;;;;;38.17;23.30;;;;;;;-4.72;100.00;97511.84;15292404;19;20018;-53
2023/12/01 23:14:57;;;;;;;37.05;23.73;;;;;;;-4.71;100.00;97507.47;15288159;19;20082;-51
2023/12/01 23:20:25;;;;;;;37.83;23.58;;;;;;;-4.70;100.00;97499.47;15289534;19;20022;-54
2023/12/01 23:25:50;;;;;;;36.40;23.52;;;;;;;-4.69;100.00;97490.66;15279545;19;20014;-51
2023/12/01 23:31:15;;;;;;;40.33;22.92;;;;;;;-4.69;100.00;97476.66;15290476;19;20014;-55
2023/12/01 23:36:42;;;;;;;38.00;23.92;;;;;;;-4.73;100.00;97476.00;15289084;19;20498;-50
2023/12/01 23:42:15;;;;;;;38.63;24.27;;;;;;;-4.74;100.00;97481.34;15027006;19;5001870;-52
2023/12/01 23:47:40;;;;;;;38.38;23.60;;;;;;;-4.75;100.00;97484.91;15288765;19;20220;-49
2023/12/01 23:53:07;;;;;;;32.60;21.95;;;;;;;-4.76;100.00;97501.59;15287344;19;20881;-53
2023/12/01 23:58:33;;;;;;;30.08;20.38;;;;;;;-4.77;100.00;97507.78;15283425;19;20033;-53
